Yasoge, Iran

3:00 PM IRDT on August 01, 2014 (GMT +0430)
Yasouj (OISY) Elev 5988 ft | 30.70 °N, 51.55 °E | Change Station

Current weather conditions updated 1 hour ago

Clear
Clear
95 °F
Feels Like 94 °F
N
5
Wind Variable Wind from SSW

Today is forecast to be nearly the same temperature as yesterday.

Today
High -- | Low -- °F
--% Chance of Precip.
Yesterday
High -- | Low -- °F
Precip. -- in
6:20 AM 7:58 PM
Waxing Crescent, 25% visible
Pressure 29.95 in
Visibility -9999.0 miles
Clouds
Heat Index 94 °F
Dew Point 57 °F
Humidity 28%
Rainfall 0.00 in
Snow Depth Not available.
UV Not available.
Pollen Not available.
Air Quality Not available.
Flu Activity Not available.
METAR OISY 010900Z 20004KT CAVOK 35/14 Q1014

More Conditions Fewer Conditions

Pressure 29.95 in
Visibility -9999.0 miles
Clouds
Heat Index 94 °F
Dew Point 57 °F
Humidity 28%
Rainfall 0.00 in
Snow Depth Not available.
UV Not available.
Pollen Not available.
Air Quality Not available.
Flu Activity Not available.
METAR OISY 010900Z 20004KT CAVOK 35/14 Q1014

More Conditions Fewer Conditions

10-Day Weather Forecast

Almanac

Astronomy

Aug. 01, 2014 Rise Set
Actual Time 6:20 AM IRDT 7:58 PM IRDT
Civil Twilight 5:54 AM IRDT 8:24 PM IRDT
Nautical Twilight 5:22 AM IRDT 8:55 PM IRDT
Astronomical Twilight 4:49 AM IRDT 9:28 PM IRDT
Moon 10:58 AM IRDT 10:55 PM IRDT
Length of Visible Light 14h 30m
Length of Day
13h 37m
Tomorrow will be 1m 23s shorter.
Waxing Crescent, 25% of the Moon is Illuminated
Today
Waxing Crescent
Aug 3
First Quarter
Aug 10
Full
Aug 17
Last Quarter
Aug 25
New

Yesterday's Extremes

Country Highs Country Lows

Community

WunderPhotos

Upload Photos

1,739,534 photos uploaded!

Nearby

Snow Depth

Not available.

Earthquake Activity

City Distance Mag. Time & Date
No recent earthquake activity has been reported nearby.
Minimum magnitude displayed is 2.5.

Coastal Water Temperatures

Place Temperature
No Stations Reporting

Nearby Weather Stations

There are no personal weather stations in this area.